sensor_id;sensor_type;location;lat;lon;timestamp;P1;durP1;ratioP1;P2;durP2;ratioP2
73474;SDS011;61711;52.266;10.542;2022-09-01T00:00:54;4.95;;;1.67;;
73474;SDS011;61711;52.266;10.542;2022-09-01T00:03:20;2.63;;;1.80;;
73474;SDS011;61711;52.266;10.542;2022-09-01T00:05:50;3.47;;;2.15;;
73474;SDS011;61711;52.266;10.542;2022-09-01T00:08:19;2.20;;;2.00;;
73474;SDS011;61711;52.266;10.542;2022-09-01T00:10:45;1.88;;;1.73;;
73474;SDS011;61711;52.266;10.542;2022-09-01T00:13:11;2.28;;;1.60;;
73474;SDS011;61711;52.266;10.542;2022-09-01T00:15:37;1.63;;;1.50;;
73474;SDS011;61711;52.266;10.542;2022-09-01T00:18:04;2.42;;;1.80;;
73474;SDS011;61711;52.266;10.542;2022-09-01T00:20:30;2.15;;;1.95;;
73474;SDS011;61711;52.266;10.542;2022-09-01T00:22:56;1.60;;;1.50;;
73474;SDS011;61711;52.266;10.542;2022-09-01T00:25:25;3.58;;;1.90;;
73474;SDS011;61711;52.266;10.542;2022-09-01T00:27:52;3.83;;;1.73;;
73474;SDS011;61711;52.266;10.542;2022-09-01T00:30:18;1.92;;;1.80;;
73474;SDS011;61711;52.266;10.542;2022-09-01T00:32:45;2.10;;;1.70;;
73474;SDS011;61711;52.266;10.542;2022-09-01T00:35:14;2.10;;;1.88;;
73474;SDS011;61711;52.266;10.542;2022-09-01T00:37:41;3.15;;;1.80;;
73474;SDS011;61711;52.266;10.542;2022-09-01T00:40:07;2.30;;;1.80;;
73474;SDS011;61711;52.266;10.542;2022-09-01T00:42:34;2.67;;;2.03;;
73474;SDS011;61711;52.266;10.542;2022-09-01T00:45:00;2.08;;;1.88;;
73474;SDS011;61711;52.266;10.542;2022-09-01T00:47:26;3.97;;;1.60;;
73474;SDS011;61711;52.266;10.542;2022-09-01T00:49:52;2.22;;;1.75;;
73474;SDS011;61711;52.266;10.542;2022-09-01T00:52:23;2.17;;;1.95;;
73474;SDS011;61711;52.266;10.542;2022-09-01T00:54:53;2.17;;;1.80;;
73474;SDS011;61711;52.266;10.542;2022-09-01T00:57:20;1.95;;;1.70;;
73474;SDS011;61711;52.266;10.542;2022-09-01T00:59:52;1.95;;;1.75;;
73474;SDS011;61711;52.266;10.542;2022-09-01T01:02:19;4.75;;;1.83;;
73474;SDS011;61711;52.266;10.542;2022-09-01T01:04:46;2.53;;;1.88;;
73474;SDS011;61711;52.266;10.542;2022-09-01T01:07:12;2.50;;;1.80;;
73474;SDS011;61711;52.266;10.542;2022-09-01T01:09:40;3.17;;;1.80;;
73474;SDS011;61711;52.266;10.542;2022-09-01T01:12:07;2.47;;;1.80;;
73474;SDS011;61711;52.266;10.542;2022-09-01T01:14:37;1.92;;;1.83;;
73474;SDS011;61711;52.266;10.542;2022-09-01T01:17:04;2.28;;;1.60;;
73474;SDS011;61711;52.266;10.542;2022-09-01T01:19:39;1.90;;;1.80;;
73474;SDS011;61711;52.266;10.542;2022-09-01T01:25:12;5.30;;;1.90;;
73474;SDS011;61711;52.266;10.542;2022-09-01T01:27:38;3.83;;;1.80;;
73474;SDS011;61711;52.266;10.542;2022-09-01T01:30:08;3.63;;;1.88;;
73474;SDS011;61711;52.266;10.542;2022-09-01T01:32:35;2.03;;;1.83;;
73474;SDS011;61711;52.266;10.542;2022-09-01T01:35:02;2.53;;;1.88;;
73474;SDS011;61711;52.266;10.542;2022-09-01T01:37:30;2.45;;;1.80;;
73474;SDS011;61711;52.266;10.542;2022-09-01T01:39:56;2.38;;;1.80;;
73474;SDS011;61711;52.266;10.542;2022-09-01T01:42:22;2.75;;;1.83;;
73474;SDS011;61711;52.266;10.542;2022-09-01T01:44:49;2.72;;;1.70;;
73474;SDS011;61711;52.266;10.542;2022-09-01T01:47:15;3.17;;;1.70;;
73474;SDS011;61711;52.266;10.542;2022-09-01T01:49:42;3.22;;;1.70;;
73474;SDS011;61711;52.266;10.542;2022-09-01T01:52:08;2.70;;;1.88;;
73474;SDS011;61711;52.266;10.542;2022-09-01T01:54:38;2.05;;;1.88;;
73474;SDS011;61711;52.266;10.542;2022-09-01T01:57:05;2.15;;;1.80;;
73474;SDS011;61711;52.266;10.542;2022-09-01T01:59:32;1.90;;;1.75;;
73474;SDS011;61711;52.266;10.542;2022-09-01T02:01:58;3.42;;;1.80;;
73474;SDS011;61711;52.266;10.542;2022-09-01T02:04:27;3.50;;;1.83;;
73474;SDS011;61711;52.266;10.542;2022-09-01T02:06:58;3.65;;;1.98;;
73474;SDS011;61711;52.266;10.542;2022-09-01T02:09:24;2.38;;;1.83;;
73474;SDS011;61711;52.266;10.542;2022-09-01T02:11:50;3.40;;;1.90;;
73474;SDS011;61711;52.266;10.542;2022-09-01T02:14:21;3.53;;;1.70;;
73474;SDS011;61711;52.266;10.542;2022-09-01T02:16:47;2.22;;;1.90;;
73474;SDS011;61711;52.266;10.542;2022-09-01T02:19:13;3.50;;;1.83;;
73474;SDS011;61711;52.266;10.542;2022-09-01T02:21:43;3.78;;;2.20;;
73474;SDS011;61711;52.266;10.542;2022-09-01T02:24:18;1.77;;;1.67;;
73474;SDS011;61711;52.266;10.542;2022-09-01T02:26:44;2.63;;;1.80;;
73474;SDS011;61711;52.266;10.542;2022-09-01T02:29:12;1.98;;;1.80;;
73474;SDS011;61711;52.266;10.542;2022-09-01T02:31:43;3.08;;;1.80;;
73474;SDS011;61711;52.266;10.542;2022-09-01T02:34:09;2.35;;;2.03;;
73474;SDS011;61711;52.266;10.542;2022-09-01T02:36:38;3.85;;;1.98;;
73474;SDS011;61711;52.266;10.542;2022-09-01T02:39:12;3.53;;;1.85;;
73474;SDS011;61711;52.266;10.542;2022-09-01T02:41:38;2.40;;;1.90;;
73474;SDS011;61711;52.266;10.542;2022-09-01T02:44:04;3.05;;;1.90;;
73474;SDS011;61711;52.266;10.542;2022-09-01T02:46:36;1.88;;;1.77;;
73474;SDS011;61711;52.266;10.542;2022-09-01T02:49:06;2.00;;;1.80;;
73474;SDS011;61711;52.266;10.542;2022-09-01T02:54:05;3.20;;;1.95;;
73474;SDS011;61711;52.266;10.542;2022-09-01T02:56:31;6.25;;;2.30;;
73474;SDS011;61711;52.266;10.542;2022-09-01T02:58:57;3.30;;;2.38;;
73474;SDS011;61711;52.266;10.542;2022-09-01T03:01:29;4.70;;;2.05;;
73474;SDS011;61711;52.266;10.542;2022-09-01T03:03:57;5.05;;;2.17;;
73474;SDS011;61711;52.266;10.542;2022-09-01T03:06:24;3.53;;;2.20;;
73474;SDS011;61711;52.266;10.542;2022-09-01T03:08:52;7.63;;;2.17;;
73474;SDS011;61711;52.266;10.542;2022-09-01T03:11:18;3.97;;;2.17;;
73474;SDS011;61711;52.266;10.542;2022-09-01T03:13:44;2.95;;;2.20;;
73474;SDS011;61711;52.266;10.542;2022-09-01T03:16:10;2.50;;;2.17;;
73474;SDS011;61711;52.266;10.542;2022-09-01T03:18:37;6.40;;;2.40;;
73474;SDS011;61711;52.266;10.542;2022-09-01T03:21:03;2.63;;;2.03;;
73474;SDS011;61711;52.266;10.542;2022-09-01T03:23:30;3.35;;;2.50;;
73474;SDS011;61711;52.266;10.542;2022-09-01T03:25:58;2.38;;;2.15;;
73474;SDS011;61711;52.266;10.542;2022-09-01T03:28:24;3.13;;;2.30;;
73474;SDS011;61711;52.266;10.542;2022-09-01T03:30:51;4.93;;;2.20;;
73474;SDS011;61711;52.266;10.542;2022-09-01T03:33:19;2.42;;;2.22;;
73474;SDS011;61711;52.266;10.542;2022-09-01T03:35:45;2.63;;;2.30;;
73474;SDS011;61711;52.266;10.542;2022-09-01T03:38:11;2.70;;;2.10;;
73474;SDS011;61711;52.266;10.542;2022-09-01T03:40:44;2.63;;;2.13;;
73474;SDS011;61711;52.266;10.542;2022-09-01T03:43:11;3.08;;;2.30;;
73474;SDS011;61711;52.266;10.542;2022-09-01T03:45:41;6.38;;;2.50;;
73474;SDS011;61711;52.266;10.542;2022-09-01T03:48:08;2.92;;;2.65;;
73474;SDS011;61711;52.266;10.542;2022-09-01T03:50:35;2.97;;;2.50;;
73474;SDS011;61711;52.266;10.542;2022-09-01T03:53:03;7.30;;;3.33;;
73474;SDS011;61711;52.266;10.542;2022-09-01T03:55:30;4.10;;;2.60;;
73474;SDS011;61711;52.266;10.542;2022-09-01T03:58:02;2.55;;;2.30;;
73474;SDS011;61711;52.266;10.542;2022-09-01T04:03:00;5.70;;;2.58;;
73474;SDS011;61711;52.266;10.542;2022-09-01T04:05:27;2.33;;;2.13;;
73474;SDS011;61711;52.266;10.542;2022-09-01T04:07:55;2.90;;;2.58;;
73474;SDS011;61711;52.266;10.542;2022-09-01T04:10:21;4.10;;;2.40;;
73474;SDS011;61711;52.266;10.542;2022-09-01T04:12:48;5.07;;;2.75;;
73474;SDS011;61711;52.266;10.542;2022-09-01T04:15:15;5.20;;;2.47;;
73474;SDS011;61711;52.266;10.542;2022-09-01T04:17:45;3.22;;;2.38;;
73474;SDS011;61711;52.266;10.542;2022-09-01T04:20:37;5.72;;;2.72;;
73474;SDS011;61711;52.266;10.542;2022-09-01T04:23:11;2.85;;;2.55;;
73474;SDS011;61711;52.266;10.542;2022-09-01T04:25:38;3.50;;;2.70;;
73474;SDS011;61711;52.266;10.542;2022-09-01T04:28:05;4.00;;;2.90;;
73474;SDS011;61711;52.266;10.542;2022-09-01T04:30:37;2.80;;;2.60;;
73474;SDS011;61711;52.266;10.542;2022-09-01T04:33:05;2.75;;;2.45;;
73474;SDS011;61711;52.266;10.542;2022-09-01T04:35:35;5.22;;;2.55;;
73474;SDS011;61711;52.266;10.542;2022-09-01T04:38:02;3.20;;;2.70;;
73474;SDS011;61711;52.266;10.542;2022-09-01T04:40:28;2.65;;;2.45;;
73474;SDS011;61711;52.266;10.542;2022-09-01T04:42:54;3.53;;;2.40;;
73474;SDS011;61711;52.266;10.542;2022-09-01T04:45:20;3.75;;;2.60;;
73474;SDS011;61711;52.266;10.542;2022-09-01T04:47:49;4.60;;;2.90;;
73474;SDS011;61711;52.266;10.542;2022-09-01T04:50:16;5.15;;;2.70;;
73474;SDS011;61711;52.266;10.542;2022-09-01T04:52:43;5.43;;;2.80;;
73474;SDS011;61711;52.266;10.542;2022-09-01T04:55:10;4.00;;;2.65;;
73474;SDS011;61711;52.266;10.542;2022-09-01T05:00:15;3.83;;;2.78;;
73474;SDS011;61711;52.266;10.542;2022-09-01T05:02:53;4.90;;;2.60;;
73474;SDS011;61711;52.266;10.542;2022-09-01T05:05:20;6.00;;;3.10;;
73474;SDS011;61711;52.266;10.542;2022-09-01T05:07:46;5.22;;;3.28;;
73474;SDS011;61711;52.266;10.542;2022-09-01T05:10:15;4.72;;;2.90;;
73474;SDS011;61711;52.266;10.542;2022-09-01T05:12:42;6.50;;;3.17;;
73474;SDS011;61711;52.266;10.542;2022-09-01T05:15:10;7.28;;;4.45;;
73474;SDS011;61711;52.266;10.542;2022-09-01T05:17:37;5.45;;;3.08;;
73474;SDS011;61711;52.266;10.542;2022-09-01T05:20:04;6.72;;;3.03;;
73474;SDS011;61711;52.266;10.542;2022-09-01T05:22:30;6.38;;;2.85;;
73474;SDS011;61711;52.266;10.542;2022-09-01T05:24:57;6.10;;;2.92;;
73474;SDS011;61711;52.266;10.542;2022-09-01T05:27:28;5.40;;;2.90;;
73474;SDS011;61711;52.266;10.542;2022-09-01T05:29:55;4.10;;;2.90;;
73474;SDS011;61711;52.266;10.542;2022-09-01T05:32:25;6.05;;;2.70;;
73474;SDS011;61711;52.266;10.542;2022-09-01T05:34:51;6.90;;;3.05;;
73474;SDS011;61711;52.266;10.542;2022-09-01T05:37:17;3.22;;;2.80;;
73474;SDS011;61711;52.266;10.542;2022-09-01T05:39:44;4.18;;;3.08;;
73474;SDS011;61711;52.266;10.542;2022-09-01T05:42:11;6.40;;;4.70;;
73474;SDS011;61711;52.266;10.542;2022-09-01T05:44:39;4.03;;;3.00;;
73474;SDS011;61711;52.266;10.542;2022-09-01T05:47:08;4.70;;;2.80;;
73474;SDS011;61711;52.266;10.542;2022-09-01T05:49:36;5.20;;;3.30;;
73474;SDS011;61711;52.266;10.542;2022-09-01T05:52:04;6.22;;;3.20;;
73474;SDS011;61711;52.266;10.542;2022-09-01T05:54:33;7.05;;;3.28;;
73474;SDS011;61711;52.266;10.542;2022-09-01T05:56:59;7.20;;;3.08;;
73474;SDS011;61711;52.266;10.542;2022-09-01T05:59:27;5.22;;;3.13;;
73474;SDS011;61711;52.266;10.542;2022-09-01T06:01:57;3.60;;;3.20;;
73474;SDS011;61711;52.266;10.542;2022-09-01T06:04:23;7.07;;;3.25;;
73474;SDS011;61711;52.266;10.542;2022-09-01T06:06:49;4.72;;;2.80;;
73474;SDS011;61711;52.266;10.542;2022-09-01T06:09:17;5.20;;;3.20;;
73474;SDS011;61711;52.266;10.542;2022-09-01T06:11:45;5.40;;;3.13;;
73474;SDS011;61711;52.266;10.542;2022-09-01T06:14:14;6.65;;;3.50;;
73474;SDS011;61711;52.266;10.542;2022-09-01T06:16:41;6.50;;;3.40;;
73474;SDS011;61711;52.266;10.542;2022-09-01T06:19:07;7.70;;;3.53;;
73474;SDS011;61711;52.266;10.542;2022-09-01T06:21:34;4.72;;;3.08;;
73474;SDS011;61711;52.266;10.542;2022-09-01T06:24:01;3.97;;;3.13;;
73474;SDS011;61711;52.266;10.542;2022-09-01T06:26:29;7.05;;;3.33;;
73474;SDS011;61711;52.266;10.542;2022-09-01T06:28:59;4.70;;;3.60;;
73474;SDS011;61711;52.266;10.542;2022-09-01T06:31:28;4.57;;;3.60;;
73474;SDS011;61711;52.266;10.542;2022-09-01T06:33:59;5.10;;;3.47;;
73474;SDS011;61711;52.266;10.542;2022-09-01T06:36:25;3.40;;;3.10;;
73474;SDS011;61711;52.266;10.542;2022-09-01T06:38:53;5.28;;;3.35;;
73474;SDS011;61711;52.266;10.542;2022-09-01T06:41:19;6.40;;;3.40;;
73474;SDS011;61711;52.266;10.542;2022-09-01T06:43:47;5.65;;;3.20;;
73474;SDS011;61711;52.266;10.542;2022-09-01T06:46:14;4.88;;;3.38;;
73474;SDS011;61711;52.266;10.542;2022-09-01T06:48:41;8.73;;;3.67;;
73474;SDS011;61711;52.266;10.542;2022-09-01T06:51:12;5.20;;;3.53;;
73474;SDS011;61711;52.266;10.542;2022-09-01T06:53:38;7.40;;;4.60;;
73474;SDS011;61711;52.266;10.542;2022-09-01T06:56:05;4.55;;;3.60;;
73474;SDS011;61711;52.266;10.542;2022-09-01T06:58:34;5.60;;;3.30;;
73474;SDS011;61711;52.266;10.542;2022-09-01T07:01:04;4.70;;;3.50;;
73474;SDS011;61711;52.266;10.542;2022-09-01T07:03:31;5.32;;;3.30;;
73474;SDS011;61711;52.266;10.542;2022-09-01T07:05:58;5.18;;;3.30;;
73474;SDS011;61711;52.266;10.542;2022-09-01T07:08:24;7.50;;;3.50;;
73474;SDS011;61711;52.266;10.542;2022-09-01T07:10:51;4.38;;;3.30;;
73474;SDS011;61711;52.266;10.542;2022-09-01T07:13:19;5.38;;;3.40;;
73474;SDS011;61711;52.266;10.542;2022-09-01T07:15:48;5.13;;;3.20;;
73474;SDS011;61711;52.266;10.542;2022-09-01T07:18:18;5.20;;;3.28;;
73474;SDS011;61711;52.266;10.542;2022-09-01T07:20:45;4.75;;;3.17;;
73474;SDS011;61711;52.266;10.542;2022-09-01T07:23:16;5.00;;;2.80;;
73474;SDS011;61711;52.266;10.542;2022-09-01T07:25:44;3.95;;;2.55;;
73474;SDS011;61711;52.266;10.542;2022-09-01T07:28:12;5.45;;;2.53;;
73474;SDS011;61711;52.266;10.542;2022-09-01T07:30:46;3.33;;;2.30;;
73474;SDS011;61711;52.266;10.542;2022-09-01T07:33:13;4.47;;;2.00;;
73474;SDS011;61711;52.266;10.542;2022-09-01T07:35:40;2.17;;;1.98;;
73474;SDS011;61711;52.266;10.542;2022-09-01T07:38:06;3.33;;;2.30;;
73474;SDS011;61711;52.266;10.542;2022-09-01T07:40:34;4.00;;;1.92;;
73474;SDS011;61711;52.266;10.542;2022-09-01T07:43:02;4.03;;;2.20;;
73474;SDS011;61711;52.266;10.542;2022-09-01T07:45:32;2.75;;;2.00;;
73474;SDS011;61711;52.266;10.542;2022-09-01T07:47:59;2.83;;;2.00;;
73474;SDS011;61711;52.266;10.542;2022-09-01T07:50:31;3.45;;;1.80;;
73474;SDS011;61711;52.266;10.542;2022-09-01T07:52:57;4.65;;;1.73;;
73474;SDS011;61711;52.266;10.542;2022-09-01T07:55:24;2.65;;;2.00;;
73474;SDS011;61711;52.266;10.542;2022-09-01T07:57:52;2.83;;;1.70;;
73474;SDS011;61711;52.266;10.542;2022-09-01T08:00:18;4.28;;;1.50;;
73474;SDS011;61711;52.266;10.542;2022-09-01T08:02:46;4.20;;;1.60;;
73474;SDS011;61711;52.266;10.542;2022-09-01T08:05:15;3.78;;;1.30;;
73474;SDS011;61711;52.266;10.542;2022-09-01T08:07:46;1.33;;;1.23;;
73474;SDS011;61711;52.266;10.542;2022-09-01T08:10:13;3.22;;;1.50;;
73474;SDS011;61711;52.266;10.542;2022-09-01T08:12:39;4.38;;;1.58;;
73474;SDS011;61711;52.266;10.542;2022-09-01T08:15:07;3.55;;;1.50;;
73474;SDS011;61711;52.266;10.542;2022-09-01T08:17:36;2.78;;;1.10;;
73474;SDS011;61711;52.266;10.542;2022-09-01T08:20:02;6.65;;;1.95;;
73474;SDS011;61711;52.266;10.542;2022-09-01T08:22:32;3.63;;;1.20;;
73474;SDS011;61711;52.266;10.542;2022-09-01T08:24:58;2.08;;;1.10;;
73474;SDS011;61711;52.266;10.542;2022-09-01T08:27:24;2.45;;;1.20;;
73474;SDS011;61711;52.266;10.542;2022-09-01T08:29:50;1.65;;;1.27;;
73474;SDS011;61711;52.266;10.542;2022-09-01T08:32:16;3.97;;;1.20;;
73474;SDS011;61711;52.266;10.542;2022-09-01T08:34:44;3.25;;;1.27;;
73474;SDS011;61711;52.266;10.542;2022-09-01T08:37:10;4.03;;;1.40;;
73474;SDS011;61711;52.266;10.542;2022-09-01T08:39:37;3.67;;;1.52;;
73474;SDS011;61711;52.266;10.542;2022-09-01T08:42:09;1.58;;;1.40;;
73474;SDS011;61711;52.266;10.542;2022-09-01T08:44:40;2.75;;;1.63;;
73474;SDS011;61711;52.266;10.542;2022-09-01T08:47:11;2.17;;;1.30;;
73474;SDS011;61711;52.266;10.542;2022-09-01T08:49:38;1.55;;;1.30;;
73474;SDS011;61711;52.266;10.542;2022-09-01T08:54:50;5.80;;;1.20;;
73474;SDS011;61711;52.266;10.542;2022-09-01T08:59:47;3.10;;;1.30;;
73474;SDS011;61711;52.266;10.542;2022-09-01T09:09:47;2.97;;;1.38;;
73474;SDS011;61711;52.266;10.542;2022-09-01T09:12:35;4.95;;;1.13;;
73474;SDS011;61711;52.266;10.542;2022-09-01T09:15:26;3.53;;;1.10;;
73474;SDS011;61711;52.266;10.542;2022-09-01T09:17:57;4.40;;;1.15;;
73474;SDS011;61711;52.266;10.542;2022-09-01T09:20:25;3.97;;;1.08;;
73474;SDS011;61711;52.266;10.542;2022-09-01T09:22:52;3.13;;;1.42;;
73474;SDS011;61711;52.266;10.542;2022-09-01T09:25:18;1.95;;;1.20;;
73474;SDS011;61711;52.266;10.542;2022-09-01T09:27:47;1.63;;;1.10;;
73474;SDS011;61711;52.266;10.542;2022-09-01T09:30:18;1.55;;;1.10;;
73474;SDS011;61711;52.266;10.542;2022-09-01T09:35:21;2.42;;;1.10;;
73474;SDS011;61711;52.266;10.542;2022-09-01T09:37:48;5.78;;;1.80;;
73474;SDS011;61711;52.266;10.542;2022-09-01T09:40:18;2.53;;;1.02;;
73474;SDS011;61711;52.266;10.542;2022-09-01T09:43:05;4.68;;;1.13;;
73474;SDS011;61711;52.266;10.542;2022-09-01T09:48:03;4.47;;;1.85;;
73474;SDS011;61711;52.266;10.542;2022-09-01T09:50:34;2.25;;;1.25;;
73474;SDS011;61711;52.266;10.542;2022-09-01T09:53:35;3.53;;;1.35;;
73474;SDS011;61711;52.266;10.542;2022-09-01T09:58:23;3.20;;;1.10;;
73474;SDS011;61711;52.266;10.542;2022-09-01T10:03:49;1.67;;;1.10;;
73474;SDS011;61711;52.266;10.542;2022-09-01T10:06:29;4.35;;;1.20;;
73474;SDS011;61711;52.266;10.542;2022-09-01T10:08:56;1.77;;;0.98;;
73474;SDS011;61711;52.266;10.542;2022-09-01T10:11:28;2.28;;;0.80;;
73474;SDS011;61711;52.266;10.542;2022-09-01T10:13:54;1.10;;;1.00;;
73474;SDS011;61711;52.266;10.542;2022-09-01T10:16:24;2.20;;;0.90;;
73474;SDS011;61711;52.266;10.542;2022-09-01T10:18:52;4.00;;;0.90;;
73474;SDS011;61711;52.266;10.542;2022-09-01T10:21:25;4.10;;;1.10;;
73474;SDS011;61711;52.266;10.542;2022-09-01T10:23:53;3.13;;;0.88;;
73474;SDS011;61711;52.266;10.542;2022-09-01T10:26:24;2.00;;;0.80;;
73474;SDS011;61711;52.266;10.542;2022-09-01T10:28:51;2.97;;;0.82;;
73474;SDS011;61711;52.266;10.542;2022-09-01T10:31:19;0.93;;;0.80;;
73474;SDS011;61711;52.266;10.542;2022-09-01T10:33:46;1.75;;;0.73;;
73474;SDS011;61711;52.266;10.542;2022-09-01T10:36:13;3.13;;;1.10;;
73474;SDS011;61711;52.266;10.542;2022-09-01T10:38:40;3.33;;;0.80;;
73474;SDS011;61711;52.266;10.542;2022-09-01T10:41:07;3.67;;;1.00;;
73474;SDS011;61711;52.266;10.542;2022-09-01T10:48:48;3.42;;;0.80;;
73474;SDS011;61711;52.266;10.542;2022-09-01T11:04:08;1.77;;;0.73;;
73474;SDS011;61711;52.266;10.542;2022-09-01T11:11:53;1.20;;;0.73;;
73474;SDS011;61711;52.266;10.542;2022-09-01T11:14:22;2.67;;;1.60;;
73474;SDS011;61711;52.266;10.542;2022-09-01T11:19:38;1.30;;;0.88;;
73474;SDS011;61711;52.266;10.542;2022-09-01T11:22:08;1.02;;;0.80;;
73474;SDS011;61711;52.266;10.542;2022-09-01T11:27:09;2.10;;;0.80;;
73474;SDS011;61711;52.266;10.542;2022-09-01T11:29:54;0.60;;;0.60;;
73474;SDS011;61711;52.266;10.542;2022-09-01T11:32:23;1.50;;;0.80;;
73474;SDS011;61711;52.266;10.542;2022-09-01T11:34:50;7.28;;;0.98;;
73474;SDS011;61711;52.266;10.542;2022-09-01T11:37:17;2.28;;;0.82;;
73474;SDS011;61711;52.266;10.542;2022-09-01T11:39:49;2.80;;;0.90;;
73474;SDS011;61711;52.266;10.542;2022-09-01T11:47:15;1.10;;;0.77;;
73474;SDS011;61711;52.266;10.542;2022-09-01T11:49:47;2.53;;;0.70;;
73474;SDS011;61711;52.266;10.542;2022-09-01T11:52:15;1.80;;;0.70;;
73474;SDS011;61711;52.266;10.542;2022-09-01T11:54:42;1.85;;;0.90;;
73474;SDS011;61711;52.266;10.542;2022-09-01T11:57:17;3.33;;;0.70;;
73474;SDS011;61711;52.266;10.542;2022-09-01T11:59:44;1.73;;;0.80;;
73474;SDS011;61711;52.266;10.542;2022-09-01T12:02:15;1.20;;;0.80;;
73474;SDS011;61711;52.266;10.542;2022-09-01T12:04:41;1.88;;;0.80;;
73474;SDS011;61711;52.266;10.542;2022-09-01T12:07:10;3.88;;;0.85;;
73474;SDS011;61711;52.266;10.542;2022-09-01T12:09:41;2.65;;;0.80;;
73474;SDS011;61711;52.266;10.542;2022-09-01T12:12:24;1.48;;;0.68;;
73474;SDS011;61711;52.266;10.542;2022-09-01T12:14:55;3.00;;;1.10;;
73474;SDS011;61711;52.266;10.542;2022-09-01T12:17:21;0.73;;;0.60;;
73474;SDS011;61711;52.266;10.542;2022-09-01T12:19:47;1.17;;;0.82;;
73474;SDS011;61711;52.266;10.542;2022-09-01T12:22:15;1.92;;;1.23;;
73474;SDS011;61711;52.266;10.542;2022-09-01T12:24:46;1.40;;;0.77;;
73474;SDS011;61711;52.266;10.542;2022-09-01T12:27:12;0.88;;;0.57;;
73474;SDS011;61711;52.266;10.542;2022-09-01T12:29:38;2.30;;;0.88;;
73474;SDS011;61711;52.266;10.542;2022-09-01T12:32:05;1.08;;;0.60;;
73474;SDS011;61711;52.266;10.542;2022-09-01T12:37:02;2.65;;;0.90;;
73474;SDS011;61711;52.266;10.542;2022-09-01T12:39:32;1.10;;;0.73;;
73474;SDS011;61711;52.266;10.542;2022-09-01T12:47:04;1.52;;;1.02;;
73474;SDS011;61711;52.266;10.542;2022-09-01T12:49:49;1.55;;;0.60;;
73474;SDS011;61711;52.266;10.542;2022-09-01T12:54:43;1.92;;;0.90;;
73474;SDS011;61711;52.266;10.542;2022-09-01T12:57:09;1.27;;;0.60;;
73474;SDS011;61711;52.266;10.542;2022-09-01T12:59:35;0.75;;;0.63;;
73474;SDS011;61711;52.266;10.542;2022-09-01T13:04:46;1.48;;;0.50;;
73474;SDS011;61711;52.266;10.542;2022-09-01T13:07:13;1.98;;;0.75;;
73474;SDS011;61711;52.266;10.542;2022-09-01T13:09:39;0.82;;;0.80;;
73474;SDS011;61711;52.266;10.542;2022-09-01T13:12:18;1.20;;;0.70;;
73474;SDS011;61711;52.266;10.542;2022-09-01T13:14:45;2.45;;;0.90;;
73474;SDS011;61711;52.266;10.542;2022-09-01T13:17:11;2.80;;;0.80;;
73474;SDS011;61711;52.266;10.542;2022-09-01T13:19:37;2.75;;;0.95;;
73474;SDS011;61711;52.266;10.542;2022-09-01T13:22:03;1.55;;;0.70;;
73474;SDS011;61711;52.266;10.542;2022-09-01T13:24:31;2.15;;;0.70;;
73474;SDS011;61711;52.266;10.542;2022-09-01T13:26:57;0.88;;;0.75;;
73474;SDS011;61711;52.266;10.542;2022-09-01T13:29:23;1.60;;;0.75;;
73474;SDS011;61711;52.266;10.542;2022-09-01T13:31:49;2.25;;;0.80;;
73474;SDS011;61711;52.266;10.542;2022-09-01T13:34:15;4.55;;;0.77;;
73474;SDS011;61711;52.266;10.542;2022-09-01T13:36:41;3.85;;;0.90;;
73474;SDS011;61711;52.266;10.542;2022-09-01T13:39:07;1.83;;;0.70;;
73474;SDS011;61711;52.266;10.542;2022-09-01T13:41:33;1.80;;;0.80;;
73474;SDS011;61711;52.266;10.542;2022-09-01T13:43:59;3.25;;;1.10;;
73474;SDS011;61711;52.266;10.542;2022-09-01T13:46:26;2.63;;;0.80;;
73474;SDS011;61711;52.266;10.542;2022-09-01T13:48:52;1.42;;;0.70;;
73474;SDS011;61711;52.266;10.542;2022-09-01T13:51:23;5.63;;;1.10;;
73474;SDS011;61711;52.266;10.542;2022-09-01T13:53:50;5.03;;;1.00;;
73474;SDS011;61711;52.266;10.542;2022-09-01T13:56:16;3.33;;;1.00;;
73474;SDS011;61711;52.266;10.542;2022-09-01T13:58:42;3.03;;;1.00;;
73474;SDS011;61711;52.266;10.542;2022-09-01T14:01:08;3.20;;;1.10;;
73474;SDS011;61711;52.266;10.542;2022-09-01T14:03:34;4.38;;;0.80;;
73474;SDS011;61711;52.266;10.542;2022-09-01T14:06:00;3.10;;;0.85;;
73474;SDS011;61711;52.266;10.542;2022-09-01T14:08:26;1.95;;;0.95;;
73474;SDS011;61711;52.266;10.542;2022-09-01T14:10:53;2.78;;;0.95;;
73474;SDS011;61711;52.266;10.542;2022-09-01T14:13:20;6.72;;;2.40;;
73474;SDS011;61711;52.266;10.542;2022-09-01T14:15:46;0.73;;;0.60;;
73474;SDS011;61711;52.266;10.542;2022-09-01T14:18:13;3.30;;;1.10;;
73474;SDS011;61711;52.266;10.542;2022-09-01T14:20:41;1.50;;;0.70;;
73474;SDS011;61711;52.266;10.542;2022-09-01T14:23:08;2.00;;;0.85;;
73474;SDS011;61711;52.266;10.542;2022-09-01T14:25:35;1.67;;;0.80;;
73474;SDS011;61711;52.266;10.542;2022-09-01T14:28:02;2.45;;;0.80;;
73474;SDS011;61711;52.266;10.542;2022-09-01T14:30:29;2.92;;;0.90;;
73474;SDS011;61711;52.266;10.542;2022-09-01T14:32:56;3.72;;;0.80;;
73474;SDS011;61711;52.266;10.542;2022-09-01T14:35:23;1.05;;;0.90;;
73474;SDS011;61711;52.266;10.542;2022-09-01T14:37:50;1.17;;;0.73;;
73474;SDS011;61711;52.266;10.542;2022-09-01T14:40:17;2.05;;;1.20;;
73474;SDS011;61711;52.266;10.542;2022-09-01T14:42:45;2.25;;;0.90;;
73474;SDS011;61711;52.266;10.542;2022-09-01T14:45:13;2.35;;;1.00;;
73474;SDS011;61711;52.266;10.542;2022-09-01T14:47:40;4.93;;;1.20;;
73474;SDS011;61711;52.266;10.542;2022-09-01T14:50:08;3.53;;;1.70;;
73474;SDS011;61711;52.266;10.542;2022-09-01T14:52:34;3.92;;;1.60;;
73474;SDS011;61711;52.266;10.542;2022-09-01T14:55:01;1.77;;;0.88;;
73474;SDS011;61711;52.266;10.542;2022-09-01T14:57:27;3.92;;;0.98;;
73474;SDS011;61711;52.266;10.542;2022-09-01T14:59:53;1.33;;;0.80;;
73474;SDS011;61711;52.266;10.542;2022-09-01T15:02:19;2.97;;;1.00;;
73474;SDS011;61711;52.266;10.542;2022-09-01T15:04:45;4.68;;;1.00;;
73474;SDS011;61711;52.266;10.542;2022-09-01T15:07:12;3.67;;;1.00;;
73474;SDS011;61711;52.266;10.542;2022-09-01T15:09:38;7.78;;;1.25;;
73474;SDS011;61711;52.266;10.542;2022-09-01T15:12:04;2.63;;;0.88;;
73474;SDS011;61711;52.266;10.542;2022-09-01T15:14:33;5.40;;;0.90;;
73474;SDS011;61711;52.266;10.542;2022-09-01T15:16:59;3.03;;;0.70;;
73474;SDS011;61711;52.266;10.542;2022-09-01T15:19:25;0.73;;;0.68;;
73474;SDS011;61711;52.266;10.542;2022-09-01T15:21:52;3.15;;;1.08;;
73474;SDS011;61711;52.266;10.542;2022-09-01T15:24:18;2.03;;;0.75;;
73474;SDS011;61711;52.266;10.542;2022-09-01T15:26:44;4.78;;;1.10;;
73474;SDS011;61711;52.266;10.542;2022-09-01T15:29:10;1.30;;;0.90;;
73474;SDS011;61711;52.266;10.542;2022-09-01T15:31:40;2.45;;;0.80;;
73474;SDS011;61711;52.266;10.542;2022-09-01T15:34:06;1.55;;;0.82;;
73474;SDS011;61711;52.266;10.542;2022-09-01T15:36:33;1.27;;;0.77;;
73474;SDS011;61711;52.266;10.542;2022-09-01T15:38:59;3.95;;;0.98;;
73474;SDS011;61711;52.266;10.542;2022-09-01T15:41:27;1.58;;;0.80;;
73474;SDS011;61711;52.266;10.542;2022-09-01T15:43:53;2.30;;;0.90;;
73474;SDS011;61711;52.266;10.542;2022-09-01T15:46:19;3.80;;;0.80;;
73474;SDS011;61711;52.266;10.542;2022-09-01T15:48:46;2.97;;;0.88;;
73474;SDS011;61711;52.266;10.542;2022-09-01T15:53:48;2.90;;;0.90;;
73474;SDS011;61711;52.266;10.542;2022-09-01T15:56:14;1.77;;;0.80;;
73474;SDS011;61711;52.266;10.542;2022-09-01T15:58:48;2.35;;;1.00;;
73474;SDS011;61711;52.266;10.542;2022-09-01T16:01:14;1.95;;;0.85;;